sensor_id;sensor_type;location;lat;lon;timestamp;P1;durP1;ratioP1;P2;durP2;ratioP2
48813;SDS011;34634;44.108;3.074;2023-04-06T00:01:48;3.10;;;2.05;;
48813;SDS011;34634;44.108;3.074;2023-04-06T00:04:14;3.35;;;1.80;;
48813;SDS011;34634;44.108;3.074;2023-04-06T00:06:40;5.70;;;1.63;;
48813;SDS011;34634;44.108;3.074;2023-04-06T00:09:07;3.83;;;2.00;;
48813;SDS011;34634;44.108;3.074;2023-04-06T00:11:33;2.72;;;1.90;;
48813;SDS011;34634;44.108;3.074;2023-04-06T00:14:00;2.97;;;1.83;;
48813;SDS011;34634;44.108;3.074;2023-04-06T00:16:26;2.85;;;1.38;;
48813;SDS011;34634;44.108;3.074;2023-04-06T00:18:52;4.40;;;1.88;;
48813;SDS011;34634;44.108;3.074;2023-04-06T00:21:19;4.55;;;2.03;;
48813;SDS011;34634;44.108;3.074;2023-04-06T00:23:45;3.72;;;1.92;;
48813;SDS011;34634;44.108;3.074;2023-04-06T00:26:12;7.10;;;1.90;;
48813;SDS011;34634;44.108;3.074;2023-04-06T00:28:38;2.83;;;1.70;;
48813;SDS011;34634;44.108;3.074;2023-04-06T00:31:04;3.05;;;1.83;;
48813;SDS011;34634;44.108;3.074;2023-04-06T00:33:31;3.42;;;2.30;;
48813;SDS011;34634;44.108;3.074;2023-04-06T00:35:57;3.83;;;1.80;;
48813;SDS011;34634;44.108;3.074;2023-04-06T00:38:23;5.90;;;2.00;;
48813;SDS011;34634;44.108;3.074;2023-04-06T00:40:50;3.47;;;2.08;;
48813;SDS011;34634;44.108;3.074;2023-04-06T00:43:16;2.45;;;1.65;;
48813;SDS011;34634;44.108;3.074;2023-04-06T00:45:42;2.40;;;1.70;;
48813;SDS011;34634;44.108;3.074;2023-04-06T00:48:09;3.70;;;2.22;;
48813;SDS011;34634;44.108;3.074;2023-04-06T00:50:35;3.97;;;1.90;;
48813;SDS011;34634;44.108;3.074;2023-04-06T00:53:01;2.83;;;1.77;;
48813;SDS011;34634;44.108;3.074;2023-04-06T00:55:28;3.38;;;1.98;;
48813;SDS011;34634;44.108;3.074;2023-04-06T00:57:56;4.45;;;2.53;;
48813;SDS011;34634;44.108;3.074;2023-04-06T01:00:22;4.10;;;1.70;;
48813;SDS011;34634;44.108;3.074;2023-04-06T01:02:49;3.75;;;2.25;;
48813;SDS011;34634;44.108;3.074;2023-04-06T01:05:15;5.20;;;1.77;;
48813;SDS011;34634;44.108;3.074;2023-04-06T01:07:42;2.95;;;1.90;;
48813;SDS011;34634;44.108;3.074;2023-04-06T01:10:08;3.67;;;2.03;;
48813;SDS011;34634;44.108;3.074;2023-04-06T01:12:35;3.42;;;2.05;;
48813;SDS011;34634;44.108;3.074;2023-04-06T01:15:02;3.42;;;1.90;;
48813;SDS011;34634;44.108;3.074;2023-04-06T01:17:29;3.38;;;2.08;;
48813;SDS011;34634;44.108;3.074;2023-04-06T01:19:55;6.05;;;2.30;;
48813;SDS011;34634;44.108;3.074;2023-04-06T01:22:22;3.42;;;1.80;;
48813;SDS011;34634;44.108;3.074;2023-04-06T01:24:50;5.78;;;2.20;;
48813;SDS011;34634;44.108;3.074;2023-04-06T01:27:16;3.75;;;2.00;;
48813;SDS011;34634;44.108;3.074;2023-04-06T01:29:43;4.75;;;2.03;;
48813;SDS011;34634;44.108;3.074;2023-04-06T01:32:09;3.88;;;2.10;;
48813;SDS011;34634;44.108;3.074;2023-04-06T01:34:36;2.85;;;1.85;;
48813;SDS011;34634;44.108;3.074;2023-04-06T01:37:02;2.88;;;1.83;;
48813;SDS011;34634;44.108;3.074;2023-04-06T01:39:29;4.97;;;2.03;;
48813;SDS011;34634;44.108;3.074;2023-04-06T01:41:55;4.70;;;1.92;;
48813;SDS011;34634;44.108;3.074;2023-04-06T01:44:21;3.60;;;1.92;;
48813;SDS011;34634;44.108;3.074;2023-04-06T01:46:47;6.05;;;2.08;;
48813;SDS011;34634;44.108;3.074;2023-04-06T01:49:14;2.92;;;2.10;;
48813;SDS011;34634;44.108;3.074;2023-04-06T01:51:40;3.47;;;2.08;;
48813;SDS011;34634;44.108;3.074;2023-04-06T01:54:07;3.33;;;2.00;;
48813;SDS011;34634;44.108;3.074;2023-04-06T01:56:33;3.67;;;2.03;;
48813;SDS011;34634;44.108;3.074;2023-04-06T01:59:00;3.42;;;2.00;;
48813;SDS011;34634;44.108;3.074;2023-04-06T02:01:26;4.75;;;1.85;;
48813;SDS011;34634;44.108;3.074;2023-04-06T02:03:53;2.17;;;1.73;;
48813;SDS011;34634;44.108;3.074;2023-04-06T02:06:19;2.85;;;1.63;;
48813;SDS011;34634;44.108;3.074;2023-04-06T02:08:45;4.45;;;1.92;;
48813;SDS011;34634;44.108;3.074;2023-04-06T02:11:12;4.45;;;2.08;;
48813;SDS011;34634;44.108;3.074;2023-04-06T02:13:38;4.05;;;1.80;;
48813;SDS011;34634;44.108;3.074;2023-04-06T02:16:05;3.03;;;2.08;;
48813;SDS011;34634;44.108;3.074;2023-04-06T02:18:31;3.95;;;2.00;;
48813;SDS011;34634;44.108;3.074;2023-04-06T02:20:57;3.35;;;2.00;;
48813;SDS011;34634;44.108;3.074;2023-04-06T02:23:24;3.92;;;1.92;;
48813;SDS011;34634;44.108;3.074;2023-04-06T02:25:50;5.10;;;2.45;;
48813;SDS011;34634;44.108;3.074;2023-04-06T02:28:16;4.75;;;2.33;;
48813;SDS011;34634;44.108;3.074;2023-04-06T02:30:43;3.22;;;2.10;;
48813;SDS011;34634;44.108;3.074;2023-04-06T02:33:09;4.80;;;2.40;;
48813;SDS011;34634;44.108;3.074;2023-04-06T02:35:35;5.47;;;2.00;;
48813;SDS011;34634;44.108;3.074;2023-04-06T02:38:02;3.88;;;1.95;;
48813;SDS011;34634;44.108;3.074;2023-04-06T02:40:28;4.60;;;2.28;;
48813;SDS011;34634;44.108;3.074;2023-04-06T02:42:55;2.70;;;2.00;;
48813;SDS011;34634;44.108;3.074;2023-04-06T02:45:21;4.35;;;2.20;;
48813;SDS011;34634;44.108;3.074;2023-04-06T02:47:47;4.18;;;2.00;;
48813;SDS011;34634;44.108;3.074;2023-04-06T02:50:14;2.97;;;2.17;;
48813;SDS011;34634;44.108;3.074;2023-04-06T02:52:41;4.75;;;2.28;;
48813;SDS011;34634;44.108;3.074;2023-04-06T02:55:07;3.03;;;2.10;;
48813;SDS011;34634;44.108;3.074;2023-04-06T02:57:33;3.30;;;2.28;;
48813;SDS011;34634;44.108;3.074;2023-04-06T03:00:00;3.78;;;2.40;;
48813;SDS011;34634;44.108;3.074;2023-04-06T03:02:26;3.92;;;3.10;;
48813;SDS011;34634;44.108;3.074;2023-04-06T03:04:53;4.80;;;3.08;;
48813;SDS011;34634;44.108;3.074;2023-04-06T03:07:19;4.10;;;2.35;;
48813;SDS011;34634;44.108;3.074;2023-04-06T03:09:46;5.00;;;2.83;;
48813;SDS011;34634;44.108;3.074;2023-04-06T03:12:12;3.05;;;2.40;;
48813;SDS011;34634;44.108;3.074;2023-04-06T03:14:38;4.03;;;2.70;;
48813;SDS011;34634;44.108;3.074;2023-04-06T03:17:05;6.13;;;2.80;;
48813;SDS011;34634;44.108;3.074;2023-04-06T03:19:31;6.38;;;2.78;;
48813;SDS011;34634;44.108;3.074;2023-04-06T03:21:57;4.13;;;2.85;;
48813;SDS011;34634;44.108;3.074;2023-04-06T03:24:24;4.55;;;2.80;;
48813;SDS011;34634;44.108;3.074;2023-04-06T03:26:50;3.60;;;2.90;;
48813;SDS011;34634;44.108;3.074;2023-04-06T03:29:16;3.65;;;2.78;;
48813;SDS011;34634;44.108;3.074;2023-04-06T03:31:43;3.85;;;2.53;;
48813;SDS011;34634;44.108;3.074;2023-04-06T03:34:09;3.53;;;2.58;;
48813;SDS011;34634;44.108;3.074;2023-04-06T03:36:36;7.03;;;3.03;;
48813;SDS011;34634;44.108;3.074;2023-04-06T03:39:02;4.53;;;2.85;;
48813;SDS011;34634;44.108;3.074;2023-04-06T03:41:28;3.65;;;2.58;;
48813;SDS011;34634;44.108;3.074;2023-04-06T03:43:55;3.28;;;2.50;;
48813;SDS011;34634;44.108;3.074;2023-04-06T03:46:21;5.07;;;2.30;;
48813;SDS011;34634;44.108;3.074;2023-04-06T03:48:48;4.50;;;2.75;;
48813;SDS011;34634;44.108;3.074;2023-04-06T03:51:14;6.15;;;2.83;;
48813;SDS011;34634;44.108;3.074;2023-04-06T03:53:40;4.05;;;2.28;;
48813;SDS011;34634;44.108;3.074;2023-04-06T03:56:07;4.65;;;2.35;;
48813;SDS011;34634;44.108;3.074;2023-04-06T03:58:34;7.10;;;2.83;;
48813;SDS011;34634;44.108;3.074;2023-04-06T04:01:00;3.22;;;2.38;;
48813;SDS011;34634;44.108;3.074;2023-04-06T04:03:26;2.88;;;2.15;;
48813;SDS011;34634;44.108;3.074;2023-04-06T04:05:53;7.80;;;2.20;;
48813;SDS011;34634;44.108;3.074;2023-04-06T04:08:23;5.30;;;1.77;;
48813;SDS011;34634;44.108;3.074;2023-04-06T04:10:49;5.45;;;2.10;;
48813;SDS011;34634;44.108;3.074;2023-04-06T04:13:16;2.47;;;1.63;;
48813;SDS011;34634;44.108;3.074;2023-04-06T04:15:42;3.40;;;2.40;;
48813;SDS011;34634;44.108;3.074;2023-04-06T04:18:08;4.80;;;2.00;;
48813;SDS011;34634;44.108;3.074;2023-04-06T04:20:35;4.47;;;2.30;;
48813;SDS011;34634;44.108;3.074;2023-04-06T04:23:01;5.65;;;2.28;;
48813;SDS011;34634;44.108;3.074;2023-04-06T04:25:27;2.90;;;2.05;;
48813;SDS011;34634;44.108;3.074;2023-04-06T04:27:54;3.80;;;2.22;;
48813;SDS011;34634;44.108;3.074;2023-04-06T04:30:20;2.58;;;2.05;;
48813;SDS011;34634;44.108;3.074;2023-04-06T04:32:47;3.25;;;2.08;;
48813;SDS011;34634;44.108;3.074;2023-04-06T04:35:13;3.22;;;1.98;;
48813;SDS011;34634;44.108;3.074;2023-04-06T04:37:40;4.82;;;2.17;;
48813;SDS011;34634;44.108;3.074;2023-04-06T04:40:07;4.70;;;2.58;;
48813;SDS011;34634;44.108;3.074;2023-04-06T04:42:33;5.47;;;2.33;;
48813;SDS011;34634;44.108;3.074;2023-04-06T04:45:00;4.45;;;2.28;;
48813;SDS011;34634;44.108;3.074;2023-04-06T04:47:26;3.00;;;2.35;;
48813;SDS011;34634;44.108;3.074;2023-04-06T04:49:52;4.20;;;2.05;;
48813;SDS011;34634;44.108;3.074;2023-04-06T04:52:19;4.75;;;2.20;;
48813;SDS011;34634;44.108;3.074;2023-04-06T04:54:45;5.72;;;2.30;;
48813;SDS011;34634;44.108;3.074;2023-04-06T04:57:13;5.43;;;2.10;;
48813;SDS011;34634;44.108;3.074;2023-04-06T04:59:39;3.65;;;2.10;;
48813;SDS011;34634;44.108;3.074;2023-04-06T05:02:05;3.63;;;2.35;;
48813;SDS011;34634;44.108;3.074;2023-04-06T05:04:32;2.80;;;1.90;;
48813;SDS011;34634;44.108;3.074;2023-04-06T05:07:02;4.15;;;2.10;;
48813;SDS011;34634;44.108;3.074;2023-04-06T05:09:31;3.70;;;2.07;;
48813;SDS011;34634;44.108;3.074;2023-04-06T05:11:58;3.47;;;2.10;;
48813;SDS011;34634;44.108;3.074;2023-04-06T05:14:25;8.15;;;2.33;;
48813;SDS011;34634;44.108;3.074;2023-04-06T05:16:52;3.92;;;2.25;;
48813;SDS011;34634;44.108;3.074;2023-04-06T05:19:18;3.53;;;2.53;;
48813;SDS011;34634;44.108;3.074;2023-04-06T05:21:45;4.05;;;2.28;;
48813;SDS011;34634;44.108;3.074;2023-04-06T05:24:11;4.90;;;2.03;;
48813;SDS011;34634;44.108;3.074;2023-04-06T05:26:37;4.95;;;2.60;;
48813;SDS011;34634;44.108;3.074;2023-04-06T05:29:04;4.45;;;2.20;;
48813;SDS011;34634;44.108;3.074;2023-04-06T05:31:30;3.47;;;2.00;;
48813;SDS011;34634;44.108;3.074;2023-04-06T05:33:56;3.30;;;1.67;;
48813;SDS011;34634;44.108;3.074;2023-04-06T05:36:23;3.88;;;2.22;;
48813;SDS011;34634;44.108;3.074;2023-04-06T05:38:50;4.03;;;2.53;;
48813;SDS011;34634;44.108;3.074;2023-04-06T05:41:18;9.68;;;2.67;;
48813;SDS011;34634;44.108;3.074;2023-04-06T05:43:45;5.63;;;2.58;;
48813;SDS011;34634;44.108;3.074;2023-04-06T05:46:11;4.07;;;2.53;;
48813;SDS011;34634;44.108;3.074;2023-04-06T05:48:38;7.10;;;2.70;;
48813;SDS011;34634;44.108;3.074;2023-04-06T05:51:04;7.22;;;2.85;;
48813;SDS011;34634;44.108;3.074;2023-04-06T05:53:31;6.80;;;2.55;;
48813;SDS011;34634;44.108;3.074;2023-04-06T05:56:01;5.75;;;2.60;;
48813;SDS011;34634;44.108;3.074;2023-04-06T05:58:28;7.45;;;2.30;;
48813;SDS011;34634;44.108;3.074;2023-04-06T06:00:57;3.03;;;2.17;;
48813;SDS011;34634;44.108;3.074;2023-04-06T06:03:24;4.28;;;2.00;;
48813;SDS011;34634;44.108;3.074;2023-04-06T06:05:51;4.05;;;2.15;;
48813;SDS011;34634;44.108;3.074;2023-04-06T06:08:17;3.78;;;1.92;;
48813;SDS011;34634;44.108;3.074;2023-04-06T06:10:43;4.93;;;2.00;;
48813;SDS011;34634;44.108;3.074;2023-04-06T06:13:10;5.40;;;2.28;;
48813;SDS011;34634;44.108;3.074;2023-04-06T06:15:36;4.25;;;2.55;;
48813;SDS011;34634;44.108;3.074;2023-04-06T06:18:02;3.38;;;2.30;;
48813;SDS011;34634;44.108;3.074;2023-04-06T06:20:29;8.77;;;2.42;;
48813;SDS011;34634;44.108;3.074;2023-04-06T06:22:55;6.65;;;2.03;;
48813;SDS011;34634;44.108;3.074;2023-04-06T06:25:21;7.05;;;3.10;;
48813;SDS011;34634;44.108;3.074;2023-04-06T06:27:48;9.98;;;2.90;;
48813;SDS011;34634;44.108;3.074;2023-04-06T06:30:14;9.02;;;2.30;;
48813;SDS011;34634;44.108;3.074;2023-04-06T06:32:41;8.07;;;2.40;;
48813;SDS011;34634;44.108;3.074;2023-04-06T06:35:07;6.53;;;2.35;;
48813;SDS011;34634;44.108;3.074;2023-04-06T06:37:34;5.30;;;2.50;;
48813;SDS011;34634;44.108;3.074;2023-04-06T06:40:00;6.53;;;2.30;;
48813;SDS011;34634;44.108;3.074;2023-04-06T06:42:26;4.50;;;2.60;;
48813;SDS011;34634;44.108;3.074;2023-04-06T06:44:53;9.57;;;2.95;;
48813;SDS011;34634;44.108;3.074;2023-04-06T06:47:20;6.10;;;3.08;;
48813;SDS011;34634;44.108;3.074;2023-04-06T06:49:46;7.38;;;3.22;;
48813;SDS011;34634;44.108;3.074;2023-04-06T06:52:12;7.15;;;2.97;;
48813;SDS011;34634;44.108;3.074;2023-04-06T06:54:42;6.88;;;3.30;;
48813;SDS011;34634;44.108;3.074;2023-04-06T06:57:09;12.52;;;3.83;;
48813;SDS011;34634;44.108;3.074;2023-04-06T06:59:35;7.03;;;2.75;;
48813;SDS011;34634;44.108;3.074;2023-04-06T07:02:01;4.30;;;2.50;;
48813;SDS011;34634;44.108;3.074;2023-04-06T07:04:28;8.70;;;2.58;;
48813;SDS011;34634;44.108;3.074;2023-04-06T07:06:54;4.53;;;2.75;;
48813;SDS011;34634;44.108;3.074;2023-04-06T07:09:21;7.00;;;2.72;;
48813;SDS011;34634;44.108;3.074;2023-04-06T07:11:47;7.18;;;2.58;;
48813;SDS011;34634;44.108;3.074;2023-04-06T07:14:14;6.05;;;2.50;;
48813;SDS011;34634;44.108;3.074;2023-04-06T07:16:41;6.88;;;2.70;;
48813;SDS011;34634;44.108;3.074;2023-04-06T07:19:09;5.15;;;2.63;;
48813;SDS011;34634;44.108;3.074;2023-04-06T07:21:36;6.57;;;2.88;;
48813;SDS011;34634;44.108;3.074;2023-04-06T07:24:02;5.97;;;2.50;;
48813;SDS011;34634;44.108;3.074;2023-04-06T07:26:29;12.35;;;3.15;;
48813;SDS011;34634;44.108;3.074;2023-04-06T07:28:55;8.48;;;2.55;;
48813;SDS011;34634;44.108;3.074;2023-04-06T07:31:21;14.25;;;2.88;;
48813;SDS011;34634;44.108;3.074;2023-04-06T07:33:48;9.98;;;2.80;;
48813;SDS011;34634;44.108;3.074;2023-04-06T07:36:15;7.15;;;3.65;;
48813;SDS011;34634;44.108;3.074;2023-04-06T07:38:41;14.02;;;6.07;;
48813;SDS011;34634;44.108;3.074;2023-04-06T07:41:07;9.80;;;3.25;;
48813;SDS011;34634;44.108;3.074;2023-04-06T07:43:34;6.03;;;2.50;;
48813;SDS011;34634;44.108;3.074;2023-04-06T07:46:00;10.07;;;2.47;;
48813;SDS011;34634;44.108;3.074;2023-04-06T07:48:27;14.70;;;2.67;;
48813;SDS011;34634;44.108;3.074;2023-04-06T07:51:00;9.13;;;2.88;;
48813;SDS011;34634;44.108;3.074;2023-04-06T07:53:26;6.68;;;2.60;;
48813;SDS011;34634;44.108;3.074;2023-04-06T07:55:53;8.68;;;3.05;;
48813;SDS011;34634;44.108;3.074;2023-04-06T07:58:21;2.95;;;2.22;;
48813;SDS011;34634;44.108;3.074;2023-04-06T08:00:47;8.15;;;2.40;;
48813;SDS011;34634;44.108;3.074;2023-04-06T08:03:13;4.88;;;2.50;;
48813;SDS011;34634;44.108;3.074;2023-04-06T08:05:40;5.32;;;2.42;;
48813;SDS011;34634;44.108;3.074;2023-04-06T08:08:06;5.68;;;2.10;;
48813;SDS011;34634;44.108;3.074;2023-04-06T08:10:32;6.22;;;2.45;;
48813;SDS011;34634;44.108;3.074;2023-04-06T08:13:00;4.65;;;2.10;;
48813;SDS011;34634;44.108;3.074;2023-04-06T08:15:26;5.95;;;1.90;;
48813;SDS011;34634;44.108;3.074;2023-04-06T08:17:52;4.70;;;2.38;;
48813;SDS011;34634;44.108;3.074;2023-04-06T08:20:22;2.17;;;1.90;;
48813;SDS011;34634;44.108;3.074;2023-04-06T08:22:48;3.92;;;2.40;;
48813;SDS011;34634;44.108;3.074;2023-04-06T08:25:15;4.88;;;1.88;;
48813;SDS011;34634;44.108;3.074;2023-04-06T08:27:41;4.38;;;1.80;;
48813;SDS011;34634;44.108;3.074;2023-04-06T08:30:07;8.85;;;2.30;;
48813;SDS011;34634;44.108;3.074;2023-04-06T08:32:34;3.70;;;2.05;;
48813;SDS011;34634;44.108;3.074;2023-04-06T08:35:01;5.30;;;1.88;;
48813;SDS011;34634;44.108;3.074;2023-04-06T08:37:27;3.47;;;2.13;;
48813;SDS011;34634;44.108;3.074;2023-04-06T08:39:53;8.35;;;2.15;;
48813;SDS011;34634;44.108;3.074;2023-04-06T08:42:20;7.35;;;2.65;;
48813;SDS011;34634;44.108;3.074;2023-04-06T08:44:48;5.60;;;2.10;;
48813;SDS011;34634;44.108;3.074;2023-04-06T08:47:16;3.08;;;2.10;;
48813;SDS011;34634;44.108;3.074;2023-04-06T08:49:42;5.28;;;2.05;;
48813;SDS011;34634;44.108;3.074;2023-04-06T08:52:10;4.10;;;1.83;;
48813;SDS011;34634;44.108;3.074;2023-04-06T08:54:37;2.60;;;2.13;;
48813;SDS011;34634;44.108;3.074;2023-04-06T08:57:03;6.13;;;2.42;;
48813;SDS011;34634;44.108;3.074;2023-04-06T08:59:33;4.80;;;2.00;;
48813;SDS011;34634;44.108;3.074;2023-04-06T09:02:03;2.58;;;1.85;;
48813;SDS011;34634;44.108;3.074;2023-04-06T09:04:33;3.85;;;1.90;;
48813;SDS011;34634;44.108;3.074;2023-04-06T09:07:00;2.63;;;2.17;;
48813;SDS011;34634;44.108;3.074;2023-04-06T09:09:26;4.13;;;1.90;;
48813;SDS011;34634;44.108;3.074;2023-04-06T09:11:53;3.50;;;2.38;;
48813;SDS011;34634;44.108;3.074;2023-04-06T09:14:36;3.38;;;2.15;;
48813;SDS011;34634;44.108;3.074;2023-04-06T09:17:03;3.75;;;2.10;;
48813;SDS011;34634;44.108;3.074;2023-04-06T09:19:30;2.92;;;2.28;;
48813;SDS011;34634;44.108;3.074;2023-04-06T09:22:03;2.15;;;1.88;;
48813;SDS011;34634;44.108;3.074;2023-04-06T09:24:39;2.95;;;2.30;;
48813;SDS011;34634;44.108;3.074;2023-04-06T09:27:05;6.05;;;2.00;;
48813;SDS011;34634;44.108;3.074;2023-04-06T09:29:32;3.30;;;2.25;;
48813;SDS011;34634;44.108;3.074;2023-04-06T09:32:05;6.75;;;2.25;;
48813;SDS011;34634;44.108;3.074;2023-04-06T09:34:32;4.35;;;2.58;;
48813;SDS011;34634;44.108;3.074;2023-04-06T09:36:59;5.47;;;2.38;;
48813;SDS011;34634;44.108;3.074;2023-04-06T09:39:27;5.88;;;2.30;;
48813;SDS011;34634;44.108;3.074;2023-04-06T09:41:54;4.05;;;2.47;;
48813;SDS011;34634;44.108;3.074;2023-04-06T09:44:21;3.80;;;2.60;;
48813;SDS011;34634;44.108;3.074;2023-04-06T09:46:49;2.95;;;2.33;;
48813;SDS011;34634;44.108;3.074;2023-04-06T09:49:15;5.63;;;2.38;;
48813;SDS011;34634;44.108;3.074;2023-04-06T09:54:08;5.32;;;2.58;;
48813;SDS011;34634;44.108;3.074;2023-04-06T09:56:48;4.28;;;2.20;;
48813;SDS011;34634;44.108;3.074;2023-04-06T10:01:48;3.03;;;2.25;;
48813;SDS011;34634;44.108;3.074;2023-04-06T10:06:42;3.10;;;2.30;;
48813;SDS011;34634;44.108;3.074;2023-04-06T10:09:09;3.03;;;2.10;;
48813;SDS011;34634;44.108;3.074;2023-04-06T10:11:36;3.13;;;2.30;;
48813;SDS011;34634;44.108;3.074;2023-04-06T10:14:03;2.78;;;1.90;;
48813;SDS011;34634;44.108;3.074;2023-04-06T10:16:29;2.35;;;1.90;;
48813;SDS011;34634;44.108;3.074;2023-04-06T10:18:58;2.53;;;2.10;;
48813;SDS011;34634;44.108;3.074;2023-04-06T10:21:26;2.30;;;2.10;;
48813;SDS011;34634;44.108;3.074;2023-04-06T10:24:00;2.83;;;2.10;;
48813;SDS011;34634;44.108;3.074;2023-04-06T10:26:27;3.67;;;2.50;;
48813;SDS011;34634;44.108;3.074;2023-04-06T10:28:54;3.38;;;1.90;;
48813;SDS011;34634;44.108;3.074;2023-04-06T10:31:24;3.20;;;1.65;;
48813;SDS011;34634;44.108;3.074;2023-04-06T10:33:59;3.17;;;1.70;;
48813;SDS011;34634;44.108;3.074;2023-04-06T10:36:31;3.63;;;1.67;;
48813;SDS011;34634;44.108;3.074;2023-04-06T10:38:59;1.60;;;1.50;;
48813;SDS011;34634;44.108;3.074;2023-04-06T10:44:22;2.67;;;1.58;;
48813;SDS011;34634;44.108;3.074;2023-04-06T10:46:58;2.92;;;1.52;;
48813;SDS011;34634;44.108;3.074;2023-04-06T10:49:27;3.00;;;1.70;;
48813;SDS011;34634;44.108;3.074;2023-04-06T10:51:54;1.95;;;1.63;;
48813;SDS011;34634;44.108;3.074;2023-04-06T10:54:21;2.33;;;1.75;;
48813;SDS011;34634;44.108;3.074;2023-04-06T10:56:49;6.65;;;1.80;;
48813;SDS011;34634;44.108;3.074;2023-04-06T10:59:22;2.40;;;1.63;;
48813;SDS011;34634;44.108;3.074;2023-04-06T11:01:50;2.22;;;1.98;;
48813;SDS011;34634;44.108;3.074;2023-04-06T11:04:17;1.70;;;1.60;;
48813;SDS011;34634;44.108;3.074;2023-04-06T11:06:47;1.50;;;1.40;;
48813;SDS011;34634;44.108;3.074;2023-04-06T11:09:50;1.67;;;1.55;;
48813;SDS011;34634;44.108;3.074;2023-04-06T11:12:19;1.50;;;1.40;;
48813;SDS011;34634;44.108;3.074;2023-04-06T11:14:56;2.00;;;1.50;;
48813;SDS011;34634;44.108;3.074;2023-04-06T11:17:30;1.95;;;1.73;;
48813;SDS011;34634;44.108;3.074;2023-04-06T11:19:57;8.63;;;2.05;;
48813;SDS011;34634;44.108;3.074;2023-04-06T11:22:24;4.75;;;1.83;;
48813;SDS011;34634;44.108;3.074;2023-04-06T11:24:50;2.05;;;1.50;;
48813;SDS011;34634;44.108;3.074;2023-04-06T11:27:17;2.67;;;1.60;;
48813;SDS011;34634;44.108;3.074;2023-04-06T11:29:44;3.60;;;1.23;;
48813;SDS011;34634;44.108;3.074;2023-04-06T11:32:21;1.63;;;1.40;;
48813;SDS011;34634;44.108;3.074;2023-04-06T11:34:48;1.40;;;1.10;;
48813;SDS011;34634;44.108;3.074;2023-04-06T11:37:15;2.65;;;0.90;;
48813;SDS011;34634;44.108;3.074;2023-04-06T11:39:44;1.30;;;0.98;;
48813;SDS011;34634;44.108;3.074;2023-04-06T11:42:13;0.90;;;0.90;;
48813;SDS011;34634;44.108;3.074;2023-04-06T11:44:46;1.10;;;1.00;;
48813;SDS011;34634;44.108;3.074;2023-04-06T11:47:15;1.05;;;0.90;;
48813;SDS011;34634;44.108;3.074;2023-04-06T11:49:42;2.88;;;0.88;;
48813;SDS011;34634;44.108;3.074;2023-04-06T11:52:16;2.50;;;1.00;;
48813;SDS011;34634;44.108;3.074;2023-04-06T11:54:43;0.90;;;0.90;;
48813;SDS011;34634;44.108;3.074;2023-04-06T11:57:09;1.10;;;0.73;;
48813;SDS011;34634;44.108;3.074;2023-04-06T11:59:36;1.10;;;0.88;;
48813;SDS011;34634;44.108;3.074;2023-04-06T12:02:02;0.95;;;0.95;;
48813;SDS011;34634;44.108;3.074;2023-04-06T12:04:29;1.90;;;0.95;;
48813;SDS011;34634;44.108;3.074;2023-04-06T12:06:55;1.40;;;0.82;;
48813;SDS011;34634;44.108;3.074;2023-04-06T12:09:22;0.63;;;0.63;;
48813;SDS011;34634;44.108;3.074;2023-04-06T12:11:48;1.25;;;0.98;;
48813;SDS011;34634;44.108;3.074;2023-04-06T12:14:14;1.05;;;1.00;;
48813;SDS011;34634;44.108;3.074;2023-04-06T12:16:41;0.90;;;0.90;;
48813;SDS011;34634;44.108;3.074;2023-04-06T12:19:07;2.55;;;1.20;;
48813;SDS011;34634;44.108;3.074;2023-04-06T12:21:34;1.10;;;1.10;;
48813;SDS011;34634;44.108;3.074;2023-04-06T12:24:04;0.98;;;0.98;;
48813;SDS011;34634;44.108;3.074;2023-04-06T12:26:31;1.30;;;1.20;;
48813;SDS011;34634;44.108;3.074;2023-04-06T12:28:58;1.00;;;1.00;;
48813;SDS011;34634;44.108;3.074;2023-04-06T12:31:32;1.20;;;1.10;;
48813;SDS011;34634;44.108;3.074;2023-04-06T12:33:59;1.00;;;1.00;;
48813;SDS011;34634;44.108;3.074;2023-04-06T12:36:26;1.13;;;1.02;;
48813;SDS011;34634;44.108;3.074;2023-04-06T12:38:52;0.80;;;0.80;;
48813;SDS011;34634;44.108;3.074;2023-04-06T12:41:19;1.35;;;1.17;;
48813;SDS011;34634;44.108;3.074;2023-04-06T12:43:45;1.40;;;1.30;;
48813;SDS011;34634;44.108;3.074;2023-04-06T12:46:12;1.05;;;0.80;;
48813;SDS011;34634;44.108;3.074;2023-04-06T12:48:38;0.90;;;0.90;;
48813;SDS011;34634;44.108;3.074;2023-04-06T12:51:05;1.73;;;1.20;;
48813;SDS011;34634;44.108;3.074;2023-04-06T12:53:32;4.40;;;0.98;;
48813;SDS011;34634;44.108;3.074;2023-04-06T12:55:59;0.93;;;0.90;;
48813;SDS011;34634;44.108;3.074;2023-04-06T12:58:25;1.30;;;1.20;;
48813;SDS011;34634;44.108;3.074;2023-04-06T13:00:53;0.80;;;0.80;;
48813;SDS011;34634;44.108;3.074;2023-04-06T13:03:19;1.10;;;1.00;;
48813;SDS011;34634;44.108;3.074;2023-04-06T13:05:48;0.88;;;0.88;;
48813;SDS011;34634;44.108;3.074;2023-04-06T13:08:15;0.77;;;0.77;;
48813;SDS011;34634;44.108;3.074;2023-04-06T13:10:46;1.13;;;0.77;;
48813;SDS011;34634;44.108;3.074;2023-04-06T13:13:16;0.73;;;0.70;;
48813;SDS011;34634;44.108;3.074;2023-04-06T13:15:42;0.87;;;0.70;;
48813;SDS011;34634;44.108;3.074;2023-04-06T13:18:10;0.70;;;0.70;;
48813;SDS011;34634;44.108;3.074;2023-04-06T13:20:36;0.80;;;0.80;;
48813;SDS011;34634;44.108;3.074;2023-04-06T13:23:03;1.38;;;0.80;;
48813;SDS011;34634;44.108;3.074;2023-04-06T13:25:29;0.98;;;0.80;;
48813;SDS011;34634;44.108;3.074;2023-04-06T13:27:58;1.23;;;0.60;;
48813;SDS011;34634;44.108;3.074;2023-04-06T13:30:24;0.77;;;0.77;;
48813;SDS011;34634;44.108;3.074;2023-04-06T13:32:50;1.23;;;0.70;;
48813;SDS011;34634;44.108;3.074;2023-04-06T13:35:17;1.00;;;0.70;;
48813;SDS011;34634;44.108;3.074;2023-04-06T13:37:44;1.73;;;0.95;;
48813;SDS011;34634;44.108;3.074;2023-04-06T13:40:10;3.25;;;0.90;;
48813;SDS011;34634;44.108;3.074;2023-04-06T13:42:37;4.28;;;0.85;;
48813;SDS011;34634;44.108;3.074;2023-04-06T13:45:05;2.67;;;1.00;;
48813;SDS011;34634;44.108;3.074;2023-04-06T13:47:31;7.22;;;0.80;;
48813;SDS011;34634;44.108;3.074;2023-04-06T13:49:58;0.60;;;0.60;;
48813;SDS011;34634;44.108;3.074;2023-04-06T13:52:24;0.93;;;0.50;;
48813;SDS011;34634;44.108;3.074;2023-04-06T13:54:51;1.13;;;0.63;;
48813;SDS011;34634;44.108;3.074;2023-04-06T13:57:18;3.03;;;0.82;;
48813;SDS011;34634;44.108;3.074;2023-04-06T13:59:44;1.75;;;0.70;;
48813;SDS011;34634;44.108;3.074;2023-04-06T14:02:11;1.25;;;0.80;;
48813;SDS011;34634;44.108;3.074;2023-04-06T14:04:37;0.70;;;0.70;;
48813;SDS011;34634;44.108;3.074;2023-04-06T14:07:03;0.95;;;0.85;;
48813;SDS011;34634;44.108;3.074;2023-04-06T14:09:32;0.80;;;0.80;;
48813;SDS011;34634;44.108;3.074;2023-04-06T14:11:59;0.65;;;0.65;;
48813;SDS011;34634;44.108;3.074;2023-04-06T14:14:25;0.55;;;0.50;;
48813;SDS011;34634;44.108;3.074;2023-04-06T14:16:52;0.60;;;0.55;;
48813;SDS011;34634;44.108;3.074;2023-04-06T14:19:19;1.45;;;1.35;;
48813;SDS011;34634;44.108;3.074;2023-04-06T14:21:48;0.55;;;0.55;;
48813;SDS011;34634;44.108;3.074;2023-04-06T14:24:17;1.75;;;0.75;;
48813;SDS011;34634;44.108;3.074;2023-04-06T14:26:44;1.13;;;0.60;;
48813;SDS011;34634;44.108;3.074;2023-04-06T14:29:10;3.60;;;0.70;;
48813;SDS011;34634;44.108;3.074;2023-04-06T14:31:37;2.85;;;0.73;;
48813;SDS011;34634;44.108;3.074;2023-04-06T14:34:03;1.17;;;0.73;;
48813;SDS011;34634;44.108;3.074;2023-04-06T14:36:33;2.25;;;0.80;;
48813;SDS011;34634;44.108;3.074;2023-04-06T14:39:03;1.08;;;0.60;;
48813;SDS011;34634;44.108;3.074;2023-04-06T14:41:30;0.68;;;0.68;;
48813;SDS011;34634;44.108;3.074;2023-04-06T14:43:56;2.28;;;0.60;;
48813;SDS011;34634;44.108;3.074;2023-04-06T14:46:23;2.25;;;0.70;;
48813;SDS011;34634;44.108;3.074;2023-04-06T14:48:49;0.85;;;0.73;;
48813;SDS011;34634;44.108;3.074;2023-04-06T14:51:16;0.70;;;0.60;;
48813;SDS011;34634;44.108;3.074;2023-04-06T14:53:42;2.92;;;0.65;;
48813;SDS011;34634;44.108;3.074;2023-04-06T14:56:08;0.70;;;0.63;;
48813;SDS011;34634;44.108;3.074;2023-04-06T14:58:35;0.70;;;0.70;;